HOURLY OBS INDEX

043

Maranoa

ROMA AIRPORT

Site: 043091
Alt: 307.4m
2km NNW of ROMA


  Time     Wind        Temp  DP   Baro     Rain since   Rain past  Vis(m), Cloud(base in m), Weather
  local        km/h                         9am  last   hr   10m    
Wed 15:00    W 20/ 24  30.9  5.3  1011.5    0.0   0.0   0.0   0.0   10000 
Wed 15:30    W 26/ 35  30.5  4.3  1011.3    0.0   0.0   0.0   0.0   10000|SC2850 
Wed 16:00    W 13/ 17  30.9  6.0  1011.2    0.0   0.0   0.0   0.0   10000|SC3750 
Wed 16:30    W 20/ 30  31.4  3.4  1011.0    0.0   0.0   0.0   0.0   10000|SC3300 
Wed 17:00   SW 26/ 33  30.8  2.1  1011.2    0.0   0.0   0.0   0.0   10000 
Wed 17:30  WSW 20/ 30  29.9  1.4  1011.5    0.0   0.0   0.0   0.0   10000 
Wed 18:00  WSW 17/ 20  28.4  1.8  1011.8    0.0   0.0   0.0   0.0   10000|SC3300 
Wed 18:30  WSW 11/ 13  25.4  1.5  1012.2    0.0   0.0   0.0   0.0   10000 
Wed 19:00   NW  9/ 13  22.9  1.9  1012.6    0.0   0.0   0.0   0.0   10000 
Wed 19:30  NNE 15/ 20  25.2  7.8  1012.8    0.0   0.0   0.0   0.0   10000|SC3450 
Wed 20:00    N 13/ 17  26.3  8.8  1013.1    0.0   0.0   0.0   0.0   10000 
Wed 20:30  NNW  9/ 13  23.7  8.2  1013.3    0.0   0.0   0.0   0.0   10000 

ST GEORGE AIRPORT

Site: 043109
Alt: 198.5m
4km SSE of ST GEORGE


  Time     Wind        Temp  DP   Baro     Rain since   Rain past  Vis(m), Cloud(base in m), Weather
  local        km/h                         9am  last   hr   10m    
Wed 15:00  WNW 28/ 37  31.2 -0.5  1010.4    0.0   0.0   0.0   0.0   10000 
Wed 15:30    W 32/ 46  31.4 -1.4  1010.2    0.0   0.0   0.0   0.0   10000 
Wed 16:00  WNW 22/ 39  30.6 -2.0  1010.0    0.0   0.0   0.0   0.0   10000 
Wed 16:30    W 24/ 33  29.8 -2.6  1010.1    0.0   0.0   0.0   0.0   10000 
Wed 17:00    W 24/ 32  29.7 -2.7  1010.3    0.0   0.0   0.0   0.0   10000 
Wed 17:30    W 17/ 24  29.1 -3.2  1010.4    0.0   0.0   0.0   0.0   10000 
Wed 18:00    W 13/ 17  26.9 -3.8  1010.9    0.0   0.0   0.0   0.0   10000 
Wed 18:18   SW 30/ 35  26.6 -8.8  1011.4    0.0   0.0  ----   0.0   10000 
Wed 18:30  SSW 26/ 35  25.8 -9.4  1011.6    0.0   0.0   0.0   0.0   10000 
Wed 19:00  SSW 24/ 32  24.8 -8.8  1012.4    0.0   0.0   0.0   0.0   10000 
Wed 19:30   SW 19/ 24  23.7 -9.7  1012.8    0.0   0.0   0.0   0.0   10000 
Wed 20:00   SW 19/ 28  23.7 -8.5  1013.2    0.0   0.0   0.0   0.0   10000 
Wed 20:30  WSW 13/ 17  22.3 -8.4  1013.7    0.0   0.0   0.0   0.0   10000